sensor_id;sensor_type;location;lat;lon;timestamp;pressure;altitude;pressure_sealevel;temperature;humidity
7335;BME280;3708;42.632;23.378;2023-02-03T00:02:02;94487.84;;;3.80;56.39
7335;BME280;3708;42.632;23.378;2023-02-03T00:04:29;94489.44;;;3.71;56.62
7335;BME280;3708;42.632;23.378;2023-02-03T00:06:56;94483.81;;;3.98;56.63
7335;BME280;3708;42.632;23.378;2023-02-03T00:09:23;94482.06;;;3.50;57.63
7335;BME280;3708;42.632;23.378;2023-02-03T00:11:49;94471.00;;;3.44;58.72
7335;BME280;3708;42.632;23.378;2023-02-03T00:14:16;94481.31;;;3.49;59.23
7335;BME280;3708;42.632;23.378;2023-02-03T00:16:43;94469.78;;;3.32;60.02
7335;BME280;3708;42.632;23.378;2023-02-03T00:19:11;94486.81;;;2.84;60.79
7335;BME280;3708;42.632;23.378;2023-02-03T00:21:38;94488.06;;;3.84;58.70
7335;BME280;3708;42.632;23.378;2023-02-03T00:24:05;94492.63;;;3.97;58.23
7335;BME280;3708;42.632;23.378;2023-02-03T00:26:32;94490.13;;;3.48;59.85
7335;BME280;3708;42.632;23.378;2023-02-03T00:28:59;94489.78;;;3.16;60.44
7335;BME280;3708;42.632;23.378;2023-02-03T00:31:26;94488.75;;;3.12;61.41
7335;BME280;3708;42.632;23.378;2023-02-03T00:33:53;94490.78;;;3.25;61.24
7335;BME280;3708;42.632;23.378;2023-02-03T00:36:22;94497.56;;;3.11;62.71
7335;BME280;3708;42.632;23.378;2023-02-03T00:38:49;94496.31;;;3.52;61.70
7335;BME280;3708;42.632;23.378;2023-02-03T00:41:16;94511.38;;;3.45;61.35
7335;BME280;3708;42.632;23.378;2023-02-03T00:43:43;94506.06;;;3.65;61.12
7335;BME280;3708;42.632;23.378;2023-02-03T00:46:10;94517.72;;;4.07;60.04
7335;BME280;3708;42.632;23.378;2023-02-03T00:48:37;94510.38;;;3.80;60.68
7335;BME280;3708;42.632;23.378;2023-02-03T00:51:04;94521.25;;;3.38;61.78
7335;BME280;3708;42.632;23.378;2023-02-03T00:53:32;94512.44;;;3.39;62.45
7335;BME280;3708;42.632;23.378;2023-02-03T00:55:59;94515.53;;;3.41;61.87
7335;BME280;3708;42.632;23.378;2023-02-03T00:58:26;94516.97;;;3.62;61.40
7335;BME280;3708;42.632;23.378;2023-02-03T01:00:53;94529.47;;;3.50;61.14
7335;BME280;3708;42.632;23.378;2023-02-03T01:03:21;94519.56;;;3.62;61.11
7335;BME280;3708;42.632;23.378;2023-02-03T01:05:48;94527.03;;;3.20;61.84
7335;BME280;3708;42.632;23.378;2023-02-03T01:08:15;94527.09;;;3.54;61.09
7335;BME280;3708;42.632;23.378;2023-02-03T01:10:43;94531.69;;;3.18;62.91
7335;BME280;3708;42.632;23.378;2023-02-03T01:13:10;94544.91;;;3.17;62.72
7335;BME280;3708;42.632;23.378;2023-02-03T01:15:37;94524.28;;;3.50;63.00
7335;BME280;3708;42.632;23.378;2023-02-03T01:18:04;94528.59;;;3.16;63.44
7335;BME280;3708;42.632;23.378;2023-02-03T01:20:30;94520.78;;;3.31;62.76
7335;BME280;3708;42.632;23.378;2023-02-03T01:22:57;94531.25;;;2.96;63.29
7335;BME280;3708;42.632;23.378;2023-02-03T01:25:24;94526.53;;;3.18;63.01
7335;BME280;3708;42.632;23.378;2023-02-03T01:27:52;94529.63;;;3.15;62.64
7335;BME280;3708;42.632;23.378;2023-02-03T01:30:19;94545.19;;;3.10;62.02
7335;BME280;3708;42.632;23.378;2023-02-03T01:32:46;94507.38;;;3.63;60.92
7335;BME280;3708;42.632;23.378;2023-02-03T01:35:13;94518.69;;;3.28;61.08
7335;BME280;3708;42.632;23.378;2023-02-03T01:37:39;94517.47;;;3.16;61.26
7335;BME280;3708;42.632;23.378;2023-02-03T01:40:07;94511.84;;;3.57;59.13
7335;BME280;3708;42.632;23.378;2023-02-03T01:42:34;94523.72;;;3.09;60.50
7335;BME280;3708;42.632;23.378;2023-02-03T01:45:03;94561.34;;;2.67;61.45
7335;BME280;3708;42.632;23.378;2023-02-03T01:47:33;94532.06;;;2.86;61.35
7335;BME280;3708;42.632;23.378;2023-02-03T01:50:08;94552.25;;;2.84;61.85
7335;BME280;3708;42.632;23.378;2023-02-03T01:52:38;94548.69;;;3.39;60.45
7335;BME280;3708;42.632;23.378;2023-02-03T01:55:09;94543.44;;;2.85;61.54
7335;BME280;3708;42.632;23.378;2023-02-03T01:57:39;94548.00;;;3.19;61.27
7335;BME280;3708;42.632;23.378;2023-02-03T02:00:11;94529.09;;;3.18;60.47
7335;BME280;3708;42.632;23.378;2023-02-03T02:02:38;94540.28;;;3.03;61.11
7335;BME280;3708;42.632;23.378;2023-02-03T02:05:09;94552.47;;;2.98;61.20
7335;BME280;3708;42.632;23.378;2023-02-03T02:07:37;94553.00;;;2.85;61.65
7335;BME280;3708;42.632;23.378;2023-02-03T02:10:06;94555.00;;;3.13;61.15
7335;BME280;3708;42.632;23.378;2023-02-03T02:12:33;94558.25;;;2.55;62.40
7335;BME280;3708;42.632;23.378;2023-02-03T02:15:00;94566.91;;;3.14;60.87
7335;BME280;3708;42.632;23.378;2023-02-03T02:17:47;94554.06;;;2.79;61.81
7335;BME280;3708;42.632;23.378;2023-02-03T02:20:33;94569.00;;;3.02;61.56
7335;BME280;3708;42.632;23.378;2023-02-03T02:26:19;94563.38;;;2.75;61.25
7335;BME280;3708;42.632;23.378;2023-02-03T02:29:08;94558.47;;;2.83;61.56
7335;BME280;3708;42.632;23.378;2023-02-03T02:31:50;94566.47;;;2.92;61.26
7335;BME280;3708;42.632;23.378;2023-02-03T02:34:23;94556.00;;;3.27;60.44
7335;BME280;3708;42.632;23.378;2023-02-03T02:36:59;94565.44;;;2.83;61.03
7335;BME280;3708;42.632;23.378;2023-02-03T02:39:36;94558.22;;;2.75;61.24
7335;BME280;3708;42.632;23.378;2023-02-03T02:42:07;94560.34;;;2.43;62.54
7335;BME280;3708;42.632;23.378;2023-02-03T02:44:40;94600.13;;;2.72;61.63
7335;BME280;3708;42.632;23.378;2023-02-03T02:47:15;94571.41;;;2.73;61.50
7335;BME280;3708;42.632;23.378;2023-02-03T02:49:47;94587.66;;;3.04;59.52
7335;BME280;3708;42.632;23.378;2023-02-03T02:52:17;94583.50;;;3.08;59.18
7335;BME280;3708;42.632;23.378;2023-02-03T02:54:50;94553.97;;;3.09;59.25
7335;BME280;3708;42.632;23.378;2023-02-03T02:57:22;94549.31;;;3.11;59.44
7335;BME280;3708;42.632;23.378;2023-02-03T02:59:52;94563.69;;;3.42;57.98
7335;BME280;3708;42.632;23.378;2023-02-03T03:02:20;94556.00;;;3.22;57.61
7335;BME280;3708;42.632;23.378;2023-02-03T03:04:48;94568.22;;;3.12;58.66
7335;BME280;3708;42.632;23.378;2023-02-03T03:07:20;94561.75;;;3.14;58.22
7335;BME280;3708;42.632;23.378;2023-02-03T03:09:51;94563.31;;;3.00;57.59
7335;BME280;3708;42.632;23.378;2023-02-03T03:12:21;94574.75;;;2.79;57.54
7335;BME280;3708;42.632;23.378;2023-02-03T03:14:53;94580.22;;;2.62;58.12
7335;BME280;3708;42.632;23.378;2023-02-03T03:17:27;94600.69;;;2.44;58.83
7335;BME280;3708;42.632;23.378;2023-02-03T03:19:59;94590.84;;;2.46;59.20
7335;BME280;3708;42.632;23.378;2023-02-03T03:22:33;94599.63;;;2.55;59.10
7335;BME280;3708;42.632;23.378;2023-02-03T03:25:07;94590.03;;;2.65;58.09
7335;BME280;3708;42.632;23.378;2023-02-03T03:27:39;94600.66;;;2.59;57.69
7335;BME280;3708;42.632;23.378;2023-02-03T03:30:10;94594.19;;;2.66;57.84
7335;BME280;3708;42.632;23.378;2023-02-03T03:32:41;94611.00;;;2.59;57.53
7335;BME280;3708;42.632;23.378;2023-02-03T03:35:08;94601.19;;;2.25;57.96
7335;BME280;3708;42.632;23.378;2023-02-03T03:37:37;94607.38;;;2.60;57.38
7335;BME280;3708;42.632;23.378;2023-02-03T03:40:09;94600.84;;;3.13;55.58
7335;BME280;3708;42.632;23.378;2023-02-03T03:42:40;94603.72;;;2.91;55.90
7335;BME280;3708;42.632;23.378;2023-02-03T03:45:15;94607.72;;;3.37;55.23
7335;BME280;3708;42.632;23.378;2023-02-03T03:47:47;94614.84;;;2.81;56.67
7335;BME280;3708;42.632;23.378;2023-02-03T03:50:18;94625.34;;;3.35;55.53
7335;BME280;3708;42.632;23.378;2023-02-03T03:52:47;94615.91;;;2.75;56.87
7335;BME280;3708;42.632;23.378;2023-02-03T03:55:17;94614.34;;;2.84;56.88
7335;BME280;3708;42.632;23.378;2023-02-03T03:57:50;94616.41;;;2.97;56.53
7335;BME280;3708;42.632;23.378;2023-02-03T04:00:19;94624.97;;;2.78;55.95
7335;BME280;3708;42.632;23.378;2023-02-03T04:02:53;94619.28;;;2.61;56.85
7335;BME280;3708;42.632;23.378;2023-02-03T04:05:22;94629.84;;;2.99;56.01
7335;BME280;3708;42.632;23.378;2023-02-03T04:07:49;94643.00;;;3.23;55.88
7335;BME280;3708;42.632;23.378;2023-02-03T04:10:24;94634.31;;;3.63;54.16
7335;BME280;3708;42.632;23.378;2023-02-03T04:12:53;94647.66;;;3.21;55.46
7335;BME280;3708;42.632;23.378;2023-02-03T04:15:19;94654.44;;;2.97;56.02
7335;BME280;3708;42.632;23.378;2023-02-03T04:17:46;94647.03;;;3.59;55.34
7335;BME280;3708;42.632;23.378;2023-02-03T04:20:15;94646.53;;;3.47;55.58
7335;BME280;3708;42.632;23.378;2023-02-03T04:22:42;94642.22;;;3.92;54.50
7335;BME280;3708;42.632;23.378;2023-02-03T04:25:09;94673.41;;;3.66;54.99
7335;BME280;3708;42.632;23.378;2023-02-03T04:27:36;94672.56;;;2.82;56.66
7335;BME280;3708;42.632;23.378;2023-02-03T04:30:03;94668.94;;;2.63;57.95
7335;BME280;3708;42.632;23.378;2023-02-03T04:32:30;94669.66;;;3.14;56.46
7335;BME280;3708;42.632;23.378;2023-02-03T04:34:59;94666.31;;;3.08;57.18
7335;BME280;3708;42.632;23.378;2023-02-03T04:37:28;94670.41;;;3.29;56.07
7335;BME280;3708;42.632;23.378;2023-02-03T04:39:54;94688.06;;;2.77;58.01
7335;BME280;3708;42.632;23.378;2023-02-03T04:42:22;94677.19;;;2.55;58.28
7335;BME280;3708;42.632;23.378;2023-02-03T04:44:49;94678.75;;;2.86;57.64
7335;BME280;3708;42.632;23.378;2023-02-03T04:47:17;94672.53;;;2.92;57.76
7335;BME280;3708;42.632;23.378;2023-02-03T04:49:44;94676.69;;;2.88;57.76
7335;BME280;3708;42.632;23.378;2023-02-03T04:52:11;94690.06;;;3.40;56.43
7335;BME280;3708;42.632;23.378;2023-02-03T04:54:40;94702.03;;;3.01;57.43
7335;BME280;3708;42.632;23.378;2023-02-03T04:57:06;94690.13;;;2.85;57.28
7335;BME280;3708;42.632;23.378;2023-02-03T04:59:33;94692.19;;;2.88;57.45
7335;BME280;3708;42.632;23.378;2023-02-03T05:02:00;94690.16;;;2.80;58.23
7335;BME280;3708;42.632;23.378;2023-02-03T05:04:27;94692.44;;;3.12;56.85
7335;BME280;3708;42.632;23.378;2023-02-03T05:06:54;94694.53;;;3.09;56.78
7335;BME280;3708;42.632;23.378;2023-02-03T05:09:22;94703.78;;;3.41;56.01
7335;BME280;3708;42.632;23.378;2023-02-03T05:11:50;94699.44;;;2.86;57.06
7335;BME280;3708;42.632;23.378;2023-02-03T05:14:17;94716.50;;;3.17;56.10
7335;BME280;3708;42.632;23.378;2023-02-03T05:16:44;94714.91;;;3.46;56.22
7335;BME280;3708;42.632;23.378;2023-02-03T05:19:11;94707.22;;;3.01;56.74
7335;BME280;3708;42.632;23.378;2023-02-03T05:21:38;94723.25;;;2.93;56.98
7335;BME280;3708;42.632;23.378;2023-02-03T05:24:05;94713.44;;;2.95;56.34
7335;BME280;3708;42.632;23.378;2023-02-03T05:26:32;94725.56;;;2.74;57.84
7335;BME280;3708;42.632;23.378;2023-02-03T05:29:00;94725.59;;;2.94;57.02
7335;BME280;3708;42.632;23.378;2023-02-03T05:31:27;94733.59;;;2.83;56.52
7335;BME280;3708;42.632;23.378;2023-02-03T05:33:54;94721.44;;;2.83;56.71
7335;BME280;3708;42.632;23.378;2023-02-03T05:36:21;94722.72;;;3.26;56.30
7335;BME280;3708;42.632;23.378;2023-02-03T05:38:48;94728.94;;;3.20;55.88
7335;BME280;3708;42.632;23.378;2023-02-03T05:41:15;94719.63;;;3.04;56.50
7335;BME280;3708;42.632;23.378;2023-02-03T05:44:00;94713.94;;;2.77;57.81
7335;BME280;3708;42.632;23.378;2023-02-03T05:46:27;94738.78;;;3.03;57.10
7335;BME280;3708;42.632;23.378;2023-02-03T05:48:54;94726.03;;;2.46;58.30
7335;BME280;3708;42.632;23.378;2023-02-03T05:51:21;94736.94;;;2.63;58.46
7335;BME280;3708;42.632;23.378;2023-02-03T05:53:49;94726.88;;;2.77;58.02
7335;BME280;3708;42.632;23.378;2023-02-03T05:56:17;94716.75;;;2.80;57.03
7335;BME280;3708;42.632;23.378;2023-02-03T05:58:44;94752.44;;;2.63;57.79
7335;BME280;3708;42.632;23.378;2023-02-03T06:01:12;94722.44;;;2.47;58.68
7335;BME280;3708;42.632;23.378;2023-02-03T06:03:39;94721.16;;;2.60;58.15
7335;BME280;3708;42.632;23.378;2023-02-03T06:06:06;94737.72;;;2.64;57.27
7335;BME280;3708;42.632;23.378;2023-02-03T06:08:32;94729.44;;;2.62;58.21
7335;BME280;3708;42.632;23.378;2023-02-03T06:10:59;94731.25;;;2.56;57.53
7335;BME280;3708;42.632;23.378;2023-02-03T06:13:26;94744.94;;;2.62;57.39
7335;BME280;3708;42.632;23.378;2023-02-03T06:15:54;94738.75;;;2.58;58.19
7335;BME280;3708;42.632;23.378;2023-02-03T06:18:22;94751.72;;;2.78;57.30
7335;BME280;3708;42.632;23.378;2023-02-03T06:20:49;94743.38;;;2.46;57.77
7335;BME280;3708;42.632;23.378;2023-02-03T06:23:16;94763.50;;;2.33;57.83
7335;BME280;3708;42.632;23.378;2023-02-03T06:25:44;94747.00;;;2.50;57.88
7335;BME280;3708;42.632;23.378;2023-02-03T06:28:11;94753.78;;;2.86;56.32
7335;BME280;3708;42.632;23.378;2023-02-03T06:30:38;94742.41;;;3.27;55.52
7335;BME280;3708;42.632;23.378;2023-02-03T06:33:04;94739.28;;;2.90;56.17
7335;BME280;3708;42.632;23.378;2023-02-03T06:35:33;94752.97;;;2.80;55.85
7335;BME280;3708;42.632;23.378;2023-02-03T06:38:00;94770.88;;;2.97;55.87
7335;BME280;3708;42.632;23.378;2023-02-03T06:40:27;94755.31;;;2.87;55.62
7335;BME280;3708;42.632;23.378;2023-02-03T06:42:54;94759.47;;;2.78;55.58
7335;BME280;3708;42.632;23.378;2023-02-03T06:45:21;94782.16;;;2.46;55.69
7335;BME280;3708;42.632;23.378;2023-02-03T06:47:50;94778.88;;;2.90;54.71
7335;BME280;3708;42.632;23.378;2023-02-03T06:50:17;94781.66;;;2.49;55.61
7335;BME280;3708;42.632;23.378;2023-02-03T06:52:48;94759.44;;;2.58;55.32
7335;BME280;3708;42.632;23.378;2023-02-03T06:55:15;94794.94;;;3.13;53.56
7335;BME280;3708;42.632;23.378;2023-02-03T06:57:43;94761.03;;;3.09;54.28
7335;BME280;3708;42.632;23.378;2023-02-03T07:00:12;94780.69;;;3.45;52.77
7335;BME280;3708;42.632;23.378;2023-02-03T07:02:39;94768.03;;;3.03;54.17
7335;BME280;3708;42.632;23.378;2023-02-03T07:05:06;94767.97;;;2.78;54.81
7335;BME280;3708;42.632;23.378;2023-02-03T07:07:33;94809.94;;;3.00;54.16
7335;BME280;3708;42.632;23.378;2023-02-03T07:10:02;94758.44;;;2.89;54.45
7335;BME280;3708;42.632;23.378;2023-02-03T07:12:28;94767.00;;;3.30;53.59
7335;BME280;3708;42.632;23.378;2023-02-03T07:14:56;94765.16;;;2.90;54.90
7335;BME280;3708;42.632;23.378;2023-02-03T07:17:23;94760.75;;;3.26;53.74
7335;BME280;3708;42.632;23.378;2023-02-03T07:19:50;94765.94;;;3.31;53.76
7335;BME280;3708;42.632;23.378;2023-02-03T07:22:16;94760.75;;;3.46;53.43
7335;BME280;3708;42.632;23.378;2023-02-03T07:24:43;94769.31;;;3.31;52.92
7335;BME280;3708;42.632;23.378;2023-02-03T07:27:17;94779.88;;;3.75;51.98
7335;BME280;3708;42.632;23.378;2023-02-03T07:29:44;94774.47;;;3.46;52.14
7335;BME280;3708;42.632;23.378;2023-02-03T07:32:11;94782.22;;;3.56;51.69
7335;BME280;3708;42.632;23.378;2023-02-03T07:34:38;94794.16;;;3.32;51.78
7335;BME280;3708;42.632;23.378;2023-02-03T07:37:05;94787.44;;;3.46;52.08
7335;BME280;3708;42.632;23.378;2023-02-03T07:39:32;94806.06;;;3.28;52.16
7335;BME280;3708;42.632;23.378;2023-02-03T07:41:59;94798.56;;;3.27;52.73
7335;BME280;3708;42.632;23.378;2023-02-03T07:44:27;94802.94;;;3.66;51.32
7335;BME280;3708;42.632;23.378;2023-02-03T07:46:54;94823.41;;;3.48;51.40
7335;BME280;3708;42.632;23.378;2023-02-03T07:49:21;94808.66;;;3.28;51.57
7335;BME280;3708;42.632;23.378;2023-02-03T07:51:48;94801.69;;;3.19;51.77
7335;BME280;3708;42.632;23.378;2023-02-03T07:54:14;94826.44;;;4.05;51.09
7335;BME280;3708;42.632;23.378;2023-02-03T07:56:41;94828.34;;;3.49;51.51
7335;BME280;3708;42.632;23.378;2023-02-03T07:59:08;94828.53;;;3.93;50.94
7335;BME280;3708;42.632;23.378;2023-02-03T08:01:36;94849.06;;;3.49;51.77
7335;BME280;3708;42.632;23.378;2023-02-03T08:04:03;94818.50;;;3.21;52.11
7335;BME280;3708;42.632;23.378;2023-02-03T08:06:30;94809.19;;;3.40;51.58
7335;BME280;3708;42.632;23.378;2023-02-03T08:08:57;94801.41;;;3.40;51.88
7335;BME280;3708;42.632;23.378;2023-02-03T08:11:25;94820.28;;;3.61;52.06
7335;BME280;3708;42.632;23.378;2023-02-03T08:13:52;94796.94;;;3.86;51.04
7335;BME280;3708;42.632;23.378;2023-02-03T08:16:19;94819.53;;;3.70;51.53
7335;BME280;3708;42.632;23.378;2023-02-03T08:18:47;94868.72;;;3.96;50.63
7335;BME280;3708;42.632;23.378;2023-02-03T08:21:14;94803.72;;;3.37;52.79
7335;BME280;3708;42.632;23.378;2023-02-03T08:23:41;94829.38;;;3.43;51.03
7335;BME280;3708;42.632;23.378;2023-02-03T08:26:08;94849.81;;;3.25;51.71
7335;BME280;3708;42.632;23.378;2023-02-03T08:28:34;94843.84;;;3.90;50.64
7335;BME280;3708;42.632;23.378;2023-02-03T08:31:08;94819.19;;;4.07;51.17
7335;BME280;3708;42.632;23.378;2023-02-03T08:33:35;94828.50;;;4.18;49.96
7335;BME280;3708;42.632;23.378;2023-02-03T08:36:04;94841.53;;;3.78;50.35
7335;BME280;3708;42.632;23.378;2023-02-03T08:38:31;94830.88;;;3.95;50.21
7335;BME280;3708;42.632;23.378;2023-02-03T08:40:58;94824.66;;;3.91;49.46
7335;BME280;3708;42.632;23.378;2023-02-03T08:43:25;94821.19;;;4.25;48.77
7335;BME280;3708;42.632;23.378;2023-02-03T08:45:51;94856.00;;;4.04;49.10
7335;BME280;3708;42.632;23.378;2023-02-03T08:48:18;94833.91;;;4.27;49.05
7335;BME280;3708;42.632;23.378;2023-02-03T08:50:45;94841.00;;;4.65;48.25
7335;BME280;3708;42.632;23.378;2023-02-03T08:53:18;94839.72;;;4.57;48.50
7335;BME280;3708;42.632;23.378;2023-02-03T08:55:45;94851.06;;;3.98;48.95
7335;BME280;3708;42.632;23.378;2023-02-03T08:58:12;94847.16;;;4.15;49.74
7335;BME280;3708;42.632;23.378;2023-02-03T09:00:39;94845.03;;;4.37;49.26
7335;BME280;3708;42.632;23.378;2023-02-03T09:03:06;94867.66;;;4.02;49.73
7335;BME280;3708;42.632;23.378;2023-02-03T09:05:34;94864.78;;;4.13;49.87
7335;BME280;3708;42.632;23.378;2023-02-03T09:08:01;94830.81;;;4.25;49.70
7335;BME280;3708;42.632;23.378;2023-02-03T09:10:29;94855.16;;;4.24;50.96
7335;BME280;3708;42.632;23.378;2023-02-03T09:12:56;94836.69;;;4.45;50.12
7335;BME280;3708;42.632;23.378;2023-02-03T09:15:23;94827.47;;;4.73;49.08
7335;BME280;3708;42.632;23.378;2023-02-03T09:17:49;94857.00;;;4.13;50.36
7335;BME280;3708;42.632;23.378;2023-02-03T09:20:16;94819.66;;;4.14;50.52
7335;BME280;3708;42.632;23.378;2023-02-03T09:22:43;94805.38;;;4.22;50.39
7335;BME280;3708;42.632;23.378;2023-02-03T09:25:10;94826.97;;;3.97;49.95
7335;BME280;3708;42.632;23.378;2023-02-03T09:27:39;94806.97;;;4.18;51.11
7335;BME280;3708;42.632;23.378;2023-02-03T09:30:07;94811.44;;;3.87;51.31
7335;BME280;3708;42.632;23.378;2023-02-03T09:32:34;94814.00;;;3.97;51.66
7335;BME280;3708;42.632;23.378;2023-02-03T09:35:01;94812.16;;;4.13;51.73
7335;BME280;3708;42.632;23.378;2023-02-03T09:37:28;94807.81;;;3.93;51.84
7335;BME280;3708;42.632;23.378;2023-02-03T09:39:55;94809.75;;;4.36;50.16
7335;BME280;3708;42.632;23.378;2023-02-03T09:42:52;94848.97;;;4.25;49.93
7335;BME280;3708;42.632;23.378;2023-02-03T09:45:23;94828.41;;;4.38;50.17
7335;BME280;3708;42.632;23.378;2023-02-03T09:47:52;94827.00;;;3.92;50.35
7335;BME280;3708;42.632;23.378;2023-02-03T09:50:23;94876.75;;;3.94;50.67
7335;BME280;3708;42.632;23.378;2023-02-03T09:52:51;94814.69;;;4.33;49.55
7335;BME280;3708;42.632;23.378;2023-02-03T09:55:28;94812.56;;;4.45;48.18
7335;BME280;3708;42.632;23.378;2023-02-03T09:58:02;94842.81;;;3.60;49.38
7335;BME280;3708;42.632;23.378;2023-02-03T10:00:34;94835.56;;;3.77;47.89
7335;BME280;3708;42.632;23.378;2023-02-03T10:03:06;94817.44;;;3.62;47.38
7335;BME280;3708;42.632;23.378;2023-02-03T10:05:49;94819.00;;;3.63;48.36
7335;BME280;3708;42.632;23.378;2023-02-03T10:08:29;94801.34;;;3.80;48.04
7335;BME280;3708;42.632;23.378;2023-02-03T10:11:13;94843.47;;;4.31;47.33
7335;BME280;3708;42.632;23.378;2023-02-03T10:13:48;94833.44;;;4.05;47.87
7335;BME280;3708;42.632;23.378;2023-02-03T10:16:34;94821.84;;;3.72;47.85
7335;BME280;3708;42.632;23.378;2023-02-03T10:19:08;94818.41;;;4.02;48.38
7335;BME280;3708;42.632;23.378;2023-02-03T10:21:40;94827.63;;;4.38;47.49
7335;BME280;3708;42.632;23.378;2023-02-03T10:24:11;94822.44;;;4.92;46.25
7335;BME280;3708;42.632;23.378;2023-02-03T10:26:40;94813.78;;;5.06;46.50
7335;BME280;3708;42.632;23.378;2023-02-03T10:29:17;94814.78;;;4.67;47.34
7335;BME280;3708;42.632;23.378;2023-02-03T10:31:46;94807.59;;;5.02;45.46
7335;BME280;3708;42.632;23.378;2023-02-03T10:34:15;94805.47;;;5.43;45.03
7335;BME280;3708;42.632;23.378;2023-02-03T10:36:54;94795.00;;;5.19;45.46
7335;BME280;3708;42.632;23.378;2023-02-03T10:39:30;94805.94;;;4.73;45.26
7335;BME280;3708;42.632;23.378;2023-02-03T10:41:58;94814.50;;;4.68;44.70
7335;BME280;3708;42.632;23.378;2023-02-03T10:44:32;94803.44;;;5.01;43.36
7335;BME280;3708;42.632;23.378;2023-02-03T10:47:01;94819.28;;;4.51;45.11
7335;BME280;3708;42.632;23.378;2023-02-03T10:49:28;94801.88;;;4.56;44.87
7335;BME280;3708;42.632;23.378;2023-02-03T10:51:59;94802.34;;;5.07;44.54
7335;BME280;3708;42.632;23.378;2023-02-03T10:54:31;94810.25;;;5.60;43.14
7335;BME280;3708;42.632;23.378;2023-02-03T10:57:03;94812.91;;;4.82;44.93
7335;BME280;3708;42.632;23.378;2023-02-03T10:59:34;94802.44;;;4.92;44.63
7335;BME280;3708;42.632;23.378;2023-02-03T11:02:07;94821.91;;;4.46;45.43
7335;BME280;3708;42.632;23.378;2023-02-03T11:04:35;94830.28;;;4.82;44.12
7335;BME280;3708;42.632;23.378;2023-02-03T11:07:04;94804.50;;;4.95;44.48
7335;BME280;3708;42.632;23.378;2023-02-03T11:09:34;94824.78;;;4.39;45.17
7335;BME280;3708;42.632;23.378;2023-02-03T11:12:07;94835.38;;;4.97;43.36
7335;BME280;3708;42.632;23.378;2023-02-03T11:14:39;94816.84;;;5.13;41.77
7335;BME280;3708;42.632;23.378;2023-02-03T11:17:11;94828.50;;;5.21;41.78
7335;BME280;3708;42.632;23.378;2023-02-03T11:19:42;94833.34;;;4.94;41.16
7335;BME280;3708;42.632;23.378;2023-02-03T11:22:10;94805.28;;;5.34;40.23
7335;BME280;3708;42.632;23.378;2023-02-03T11:24:40;94816.34;;;4.68;41.42
7335;BME280;3708;42.632;23.378;2023-02-03T11:27:10;94811.75;;;5.66;40.58
7335;BME280;3708;42.632;23.378;2023-02-03T11:29:42;94776.47;;;5.31;42.08
7335;BME280;3708;42.632;23.378;2023-02-03T11:32:16;94797.00;;;5.27;41.22
7335;BME280;3708;42.632;23.378;2023-02-03T11:34:48;94771.88;;;5.52;41.17
7335;BME280;3708;42.632;23.378;2023-02-03T11:37:30;94781.63;;;5.02;40.82
7335;BME280;3708;42.632;23.378;2023-02-03T11:40:23;94776.03;;;5.19;41.03
7335;BME280;3708;42.632;23.378;2023-02-03T11:43:12;94774.53;;;4.74;40.96
7335;BME280;3708;42.632;23.378;2023-02-03T11:45:42;94761.78;;;5.16;40.93
7335;BME280;3708;42.632;23.378;2023-02-03T11:48:20;94754.75;;;5.74;39.42
7335;BME280;3708;42.632;23.378;2023-02-03T11:50:57;94748.56;;;5.70;40.15
7335;BME280;3708;42.632;23.378;2023-02-03T11:53:31;94773.28;;;6.20;39.11
7335;BME280;3708;42.632;23.378;2023-02-03T11:56:14;94785.22;;;5.97;39.00
7335;BME280;3708;42.632;23.378;2023-02-03T11:59:02;94750.16;;;5.95;38.47
7335;BME280;3708;42.632;23.378;2023-02-03T12:01:56;94762.22;;;6.09;38.98
7335;BME280;3708;42.632;23.378;2023-02-03T12:04:46;94770.06;;;5.76;38.85
7335;BME280;3708;42.632;23.378;2023-02-03T12:10:23;94767.56;;;5.66;39.04
7335;BME280;3708;42.632;23.378;2023-02-03T12:12:57;94776.19;;;5.61;39.23
7335;BME280;3708;42.632;23.378;2023-02-03T12:15:38;94749.84;;;6.01;38.54
7335;BME280;3708;42.632;23.378;2023-02-03T12:18:32;94743.56;;;5.50;37.90
7335;BME280;3708;42.632;23.378;2023-02-03T12:21:16;94750.91;;;6.19;37.81
7335;BME280;3708;42.632;23.378;2023-02-03T12:23:54;94762.88;;;6.20;36.16
7335;BME280;3708;42.632;23.378;2023-02-03T12:26:27;94752.66;;;5.76;36.83
7335;BME280;3708;42.632;23.378;2023-02-03T12:29:01;94759.25;;;5.69;37.08
7335;BME280;3708;42.632;23.378;2023-02-03T12:31:34;94748.53;;;5.47;37.02
7335;BME280;3708;42.632;23.378;2023-02-03T12:34:12;94749.47;;;5.27;37.26
7335;BME280;3708;42.632;23.378;2023-02-03T12:36:44;94737.94;;;5.09;36.67
7335;BME280;3708;42.632;23.378;2023-02-03T12:39:18;94737.03;;;4.90;38.02
7335;BME280;3708;42.632;23.378;2023-02-03T12:41:49;94731.13;;;5.18;37.34
7335;BME280;3708;42.632;23.378;2023-02-03T12:44:23;94724.88;;;4.86;38.24
7335;BME280;3708;42.632;23.378;2023-02-03T12:46:59;94718.91;;;5.19;38.11
7335;BME280;3708;42.632;23.378;2023-02-03T12:49:35;94708.38;;;6.10;36.81
7335;BME280;3708;42.632;23.378;2023-02-03T12:52:11;94710.66;;;6.35;36.51
7335;BME280;3708;42.632;23.378;2023-02-03T12:54:48;94699.34;;;6.63;36.31
7335;BME280;3708;42.632;23.378;2023-02-03T12:57:22;94698.63;;;6.21;36.89
7335;BME280;3708;42.632;23.378;2023-02-03T13:00:12;94704.03;;;6.80;36.66
7335;BME280;3708;42.632;23.378;2023-02-03T13:02:47;94702.75;;;7.42;34.90
7335;BME280;3708;42.632;23.378;2023-02-03T13:05:25;94713.19;;;7.10;36.23
7335;BME280;3708;42.632;23.378;2023-02-03T13:07:58;94698.97;;;7.21;35.94
7335;BME280;3708;42.632;23.378;2023-02-03T13:10:33;94679.50;;;6.11;36.92
7335;BME280;3708;42.632;23.378;2023-02-03T13:13:03;94702.06;;;6.16;37.59
7335;BME280;3708;42.632;23.378;2023-02-03T13:15:36;94711.19;;;6.13;38.42
7335;BME280;3708;42.632;23.378;2023-02-03T13:18:09;94704.56;;;6.02;38.77
7335;BME280;3708;42.632;23.378;2023-02-03T13:20:41;94708.66;;;5.85;39.36
7335;BME280;3708;42.632;23.378;2023-02-03T13:23:11;94693.53;;;5.63;39.61
7335;BME280;3708;42.632;23.378;2023-02-03T13:25:47;94699.75;;;5.91;39.21
7335;BME280;3708;42.632;23.378;2023-02-03T13:28:25;94716.41;;;5.90;40.14
7335;BME280;3708;42.632;23.378;2023-02-03T13:31:18;94695.25;;;5.73;40.53
7335;BME280;3708;42.632;23.378;2023-02-03T13:34:00;94705.44;;;6.17;40.18
7335;BME280;3708;42.632;23.378;2023-02-03T13:36:47;94708.78;;;5.46;41.08
7335;BME280;3708;42.632;23.378;2023-02-03T13:39:35;94696.31;;;4.86;42.70
7335;BME280;3708;42.632;23.378;2023-02-03T13:42:24;94710.97;;;5.05;42.18
7335;BME280;3708;42.632;23.378;2023-02-03T13:44:57;94706.59;;;5.58;41.67
7335;BME280;3708;42.632;23.378;2023-02-03T13:47:27;94694.63;;;5.57;40.87